sensor_id;sensor_type;location;lat;lon;timestamp;P1;durP1;ratioP1;P2;durP2;ratioP2
5620;SDS011;2832;50.864;12.186;2022-12-01T00:00:59;1.10;;;1.10;;
5620;SDS011;2832;50.864;12.186;2022-12-01T00:03:28;1.00;;;1.00;;
5620;SDS011;2832;50.864;12.186;2022-12-01T00:05:57;1.03;;;1.03;;
5620;SDS011;2832;50.864;12.186;2022-12-01T00:08:28;1.10;;;1.10;;
5620;SDS011;2832;50.864;12.186;2022-12-01T00:11:01;1.10;;;1.10;;
5620;SDS011;2832;50.864;12.186;2022-12-01T00:13:29;1.10;;;1.10;;
5620;SDS011;2832;50.864;12.186;2022-12-01T00:15:57;1.10;;;1.10;;
5620;SDS011;2832;50.864;12.186;2022-12-01T00:18:34;1.10;;;1.10;;
5620;SDS011;2832;50.864;12.186;2022-12-01T00:21:05;1.10;;;1.10;;
5620;SDS011;2832;50.864;12.186;2022-12-01T00:23:42;1.10;;;1.10;;
5620;SDS011;2832;50.864;12.186;2022-12-01T00:26:11;1.10;;;1.10;;
5620;SDS011;2832;50.864;12.186;2022-12-01T00:28:41;1.10;;;1.10;;
5620;SDS011;2832;50.864;12.186;2022-12-01T00:31:09;1.10;;;1.10;;
5620;SDS011;2832;50.864;12.186;2022-12-01T00:33:38;1.10;;;1.10;;
5620;SDS011;2832;50.864;12.186;2022-12-01T00:36:07;1.10;;;1.10;;
5620;SDS011;2832;50.864;12.186;2022-12-01T00:38:35;1.10;;;1.10;;
5620;SDS011;2832;50.864;12.186;2022-12-01T00:41:05;1.10;;;1.10;;
5620;SDS011;2832;50.864;12.186;2022-12-01T00:43:32;1.10;;;1.10;;
5620;SDS011;2832;50.864;12.186;2022-12-01T00:46:01;1.10;;;1.10;;
5620;SDS011;2832;50.864;12.186;2022-12-01T00:48:29;1.10;;;1.10;;
5620;SDS011;2832;50.864;12.186;2022-12-01T00:50:56;1.10;;;1.10;;
5620;SDS011;2832;50.864;12.186;2022-12-01T00:53:24;1.10;;;1.10;;
5620;SDS011;2832;50.864;12.186;2022-12-01T00:55:53;0.20;;;0.20;;
5620;SDS011;2832;50.864;12.186;2022-12-01T00:58:22;0.27;;;0.27;;
5620;SDS011;2832;50.864;12.186;2022-12-01T01:00:55;0.30;;;0.30;;
5620;SDS011;2832;50.864;12.186;2022-12-01T01:03:25;0.30;;;0.30;;
5620;SDS011;2832;50.864;12.186;2022-12-01T01:06:01;0.20;;;0.20;;
5620;SDS011;2832;50.864;12.186;2022-12-01T01:08:32;0.30;;;0.30;;
5620;SDS011;2832;50.864;12.186;2022-12-01T01:11:07;0.30;;;0.30;;
5620;SDS011;2832;50.864;12.186;2022-12-01T01:13:37;0.30;;;0.30;;
5620;SDS011;2832;50.864;12.186;2022-12-01T01:16:14;0.23;;;0.23;;
5620;SDS011;2832;50.864;12.186;2022-12-01T01:18:47;0.30;;;0.30;;
5620;SDS011;2832;50.864;12.186;2022-12-01T01:21:16;0.27;;;0.27;;
5620;SDS011;2832;50.864;12.186;2022-12-01T01:23:45;0.30;;;0.30;;
5620;SDS011;2832;50.864;12.186;2022-12-01T01:26:20;0.20;;;0.20;;
5620;SDS011;2832;50.864;12.186;2022-12-01T01:28:54;0.30;;;0.30;;
5620;SDS011;2832;50.864;12.186;2022-12-01T01:31:24;0.30;;;0.30;;
5620;SDS011;2832;50.864;12.186;2022-12-01T01:33:54;0.30;;;0.30;;
5620;SDS011;2832;50.864;12.186;2022-12-01T01:36:28;0.30;;;0.30;;
5620;SDS011;2832;50.864;12.186;2022-12-01T01:39:04;0.30;;;0.30;;
5620;SDS011;2832;50.864;12.186;2022-12-01T01:41:34;0.30;;;0.30;;
5620;SDS011;2832;50.864;12.186;2022-12-01T01:47:16;0.30;;;0.30;;
5620;SDS011;2832;50.864;12.186;2022-12-01T01:49:48;0.30;;;0.30;;
5620;SDS011;2832;50.864;12.186;2022-12-01T01:52:18;0.30;;;0.30;;
5620;SDS011;2832;50.864;12.186;2022-12-01T01:54:47;0.30;;;0.30;;
5620;SDS011;2832;50.864;12.186;2022-12-01T01:57:19;0.30;;;0.30;;
5620;SDS011;2832;50.864;12.186;2022-12-01T01:59:55;0.30;;;0.30;;
5620;SDS011;2832;50.864;12.186;2022-12-01T02:02:29;0.30;;;0.30;;
5620;SDS011;2832;50.864;12.186;2022-12-01T02:04:59;0.30;;;0.30;;
5620;SDS011;2832;50.864;12.186;2022-12-01T02:07:29;0.30;;;0.30;;
5620;SDS011;2832;50.864;12.186;2022-12-01T02:09:58;0.30;;;0.30;;
5620;SDS011;2832;50.864;12.186;2022-12-01T02:12:39;0.30;;;0.30;;
5620;SDS011;2832;50.864;12.186;2022-12-01T02:15:29;0.30;;;0.30;;
5620;SDS011;2832;50.864;12.186;2022-12-01T02:18:05;0.30;;;0.30;;
5620;SDS011;2832;50.864;12.186;2022-12-01T02:21:16;0.30;;;0.30;;
5620;SDS011;2832;50.864;12.186;2022-12-01T02:24:15;0.20;;;0.20;;
5620;SDS011;2832;50.864;12.186;2022-12-01T02:27:20;0.30;;;0.30;;
5620;SDS011;2832;50.864;12.186;2022-12-01T02:30:04;0.30;;;0.30;;
5620;SDS011;2832;50.864;12.186;2022-12-01T02:32:43;0.40;;;0.40;;
5620;SDS011;2832;50.864;12.186;2022-12-01T02:35:23;0.30;;;0.30;;
5620;SDS011;2832;50.864;12.186;2022-12-01T02:38:03;0.30;;;0.30;;
5620;SDS011;2832;50.864;12.186;2022-12-01T02:40:45;0.30;;;0.30;;
5620;SDS011;2832;50.864;12.186;2022-12-01T02:43:39;0.20;;;0.20;;
5620;SDS011;2832;50.864;12.186;2022-12-01T02:46:32;0.20;;;0.20;;
5620;SDS011;2832;50.864;12.186;2022-12-01T02:49:29;0.30;;;0.30;;
5620;SDS011;2832;50.864;12.186;2022-12-01T02:52:21;0.20;;;0.20;;
5620;SDS011;2832;50.864;12.186;2022-12-01T02:55:11;0.30;;;0.30;;
5620;SDS011;2832;50.864;12.186;2022-12-01T02:57:41;0.30;;;0.30;;
5620;SDS011;2832;50.864;12.186;2022-12-01T03:00:12;0.30;;;0.30;;
5620;SDS011;2832;50.864;12.186;2022-12-01T03:02:44;0.20;;;0.20;;
5620;SDS011;2832;50.864;12.186;2022-12-01T03:05:24;1.10;;;1.10;;
5620;SDS011;2832;50.864;12.186;2022-12-01T03:08:03;1.10;;;1.10;;
5620;SDS011;2832;50.864;12.186;2022-12-01T03:10:41;1.10;;;1.10;;
5620;SDS011;2832;50.864;12.186;2022-12-01T03:13:17;1.10;;;1.10;;
5620;SDS011;2832;50.864;12.186;2022-12-01T03:15:55;1.10;;;1.10;;
5620;SDS011;2832;50.864;12.186;2022-12-01T03:18:29;1.10;;;1.10;;
5620;SDS011;2832;50.864;12.186;2022-12-01T03:21:03;1.10;;;1.10;;
5620;SDS011;2832;50.864;12.186;2022-12-01T03:23:36;1.10;;;1.10;;
5620;SDS011;2832;50.864;12.186;2022-12-01T03:26:08;1.10;;;1.10;;
5620;SDS011;2832;50.864;12.186;2022-12-01T03:28:41;1.10;;;1.10;;
5620;SDS011;2832;50.864;12.186;2022-12-01T03:31:14;1.10;;;1.10;;
5620;SDS011;2832;50.864;12.186;2022-12-01T03:33:45;1.00;;;1.00;;
5620;SDS011;2832;50.864;12.186;2022-12-01T03:36:19;1.10;;;1.10;;
5620;SDS011;2832;50.864;12.186;2022-12-01T03:38:53;1.10;;;1.10;;
5620;SDS011;2832;50.864;12.186;2022-12-01T03:41:26;1.10;;;1.10;;
5620;SDS011;2832;50.864;12.186;2022-12-01T03:44:06;1.10;;;1.10;;
5620;SDS011;2832;50.864;12.186;2022-12-01T03:46:38;1.10;;;1.10;;
5620;SDS011;2832;50.864;12.186;2022-12-01T03:49:12;1.10;;;1.10;;
5620;SDS011;2832;50.864;12.186;2022-12-01T03:51:46;1.10;;;1.10;;
5620;SDS011;2832;50.864;12.186;2022-12-01T03:54:23;1.10;;;1.10;;
5620;SDS011;2832;50.864;12.186;2022-12-01T03:56:58;1.10;;;1.10;;
5620;SDS011;2832;50.864;12.186;2022-12-01T03:59:30;1.10;;;1.10;;
5620;SDS011;2832;50.864;12.186;2022-12-01T04:02:01;1.03;;;1.03;;
5620;SDS011;2832;50.864;12.186;2022-12-01T04:04:29;1.10;;;1.10;;
5620;SDS011;2832;50.864;12.186;2022-12-01T04:06:59;1.00;;;1.00;;
5620;SDS011;2832;50.864;12.186;2022-12-01T04:09:27;1.07;;;1.07;;
5620;SDS011;2832;50.864;12.186;2022-12-01T04:11:56;1.03;;;1.03;;
5620;SDS011;2832;50.864;12.186;2022-12-01T04:14:41;1.20;;;1.20;;
5620;SDS011;2832;50.864;12.186;2022-12-01T04:17:09;1.10;;;1.10;;
5620;SDS011;2832;50.864;12.186;2022-12-01T04:19:36;1.10;;;1.10;;
5620;SDS011;2832;50.864;12.186;2022-12-01T04:22:06;1.00;;;1.00;;
5620;SDS011;2832;50.864;12.186;2022-12-01T04:24:33;1.00;;;1.00;;
5620;SDS011;2832;50.864;12.186;2022-12-01T04:27:01;1.10;;;1.10;;
5620;SDS011;2832;50.864;12.186;2022-12-01T04:29:29;1.10;;;1.10;;
5620;SDS011;2832;50.864;12.186;2022-12-01T04:31:57;1.10;;;1.10;;
5620;SDS011;2832;50.864;12.186;2022-12-01T04:34:25;1.10;;;1.10;;
5620;SDS011;2832;50.864;12.186;2022-12-01T04:36:53;1.00;;;1.00;;
5620;SDS011;2832;50.864;12.186;2022-12-01T04:39:22;1.10;;;1.10;;
5620;SDS011;2832;50.864;12.186;2022-12-01T04:41:50;1.10;;;1.10;;
5620;SDS011;2832;50.864;12.186;2022-12-01T04:44:18;1.10;;;1.10;;
5620;SDS011;2832;50.864;12.186;2022-12-01T04:46:45;1.07;;;1.07;;
5620;SDS011;2832;50.864;12.186;2022-12-01T04:49:15;1.00;;;1.00;;
5620;SDS011;2832;50.864;12.186;2022-12-01T04:51:43;1.10;;;1.10;;
5620;SDS011;2832;50.864;12.186;2022-12-01T04:54:10;1.10;;;1.10;;
5620;SDS011;2832;50.864;12.186;2022-12-01T04:56:39;1.00;;;1.00;;
5620;SDS011;2832;50.864;12.186;2022-12-01T04:59:07;1.00;;;1.00;;
5620;SDS011;2832;50.864;12.186;2022-12-01T05:01:35;1.17;;;1.17;;
5620;SDS011;2832;50.864;12.186;2022-12-01T05:04:05;1.10;;;1.10;;
5620;SDS011;2832;50.864;12.186;2022-12-01T05:06:33;1.10;;;1.10;;
5620;SDS011;2832;50.864;12.186;2022-12-01T05:09:00;1.10;;;1.10;;
5620;SDS011;2832;50.864;12.186;2022-12-01T05:11:28;1.10;;;1.10;;
5620;SDS011;2832;50.864;12.186;2022-12-01T05:13:59;1.10;;;1.10;;
5620;SDS011;2832;50.864;12.186;2022-12-01T05:16:27;1.00;;;1.00;;
5620;SDS011;2832;50.864;12.186;2022-12-01T05:18:58;1.10;;;1.10;;
5620;SDS011;2832;50.864;12.186;2022-12-01T05:21:45;1.10;;;1.10;;
5620;SDS011;2832;50.864;12.186;2022-12-01T05:24:15;1.10;;;1.10;;
5620;SDS011;2832;50.864;12.186;2022-12-01T05:26:44;1.00;;;1.00;;
5620;SDS011;2832;50.864;12.186;2022-12-01T05:29:14;1.10;;;1.10;;
5620;SDS011;2832;50.864;12.186;2022-12-01T05:31:41;1.00;;;1.00;;
5620;SDS011;2832;50.864;12.186;2022-12-01T05:34:10;1.10;;;1.10;;
5620;SDS011;2832;50.864;12.186;2022-12-01T05:36:38;1.00;;;1.00;;
5620;SDS011;2832;50.864;12.186;2022-12-01T05:39:06;1.10;;;1.10;;
5620;SDS011;2832;50.864;12.186;2022-12-01T05:41:34;1.10;;;1.10;;
5620;SDS011;2832;50.864;12.186;2022-12-01T05:44:02;1.00;;;1.00;;
5620;SDS011;2832;50.864;12.186;2022-12-01T05:46:31;1.10;;;1.10;;
5620;SDS011;2832;50.864;12.186;2022-12-01T05:49:00;1.10;;;1.10;;
5620;SDS011;2832;50.864;12.186;2022-12-01T05:51:28;1.10;;;1.10;;
5620;SDS011;2832;50.864;12.186;2022-12-01T05:53:58;1.10;;;1.10;;
5620;SDS011;2832;50.864;12.186;2022-12-01T05:56:30;1.00;;;1.00;;
5620;SDS011;2832;50.864;12.186;2022-12-01T05:58:59;1.10;;;1.10;;
5620;SDS011;2832;50.864;12.186;2022-12-01T06:01:31;1.00;;;1.00;;
5620;SDS011;2832;50.864;12.186;2022-12-01T06:04:00;1.10;;;1.10;;
5620;SDS011;2832;50.864;12.186;2022-12-01T06:06:28;1.00;;;1.00;;
5620;SDS011;2832;50.864;12.186;2022-12-01T06:08:56;1.10;;;1.10;;
5620;SDS011;2832;50.864;12.186;2022-12-01T06:11:24;1.00;;;1.00;;
5620;SDS011;2832;50.864;12.186;2022-12-01T06:13:51;1.10;;;1.10;;
5620;SDS011;2832;50.864;12.186;2022-12-01T06:16:19;1.10;;;1.10;;
5620;SDS011;2832;50.864;12.186;2022-12-01T06:18:49;1.03;;;1.03;;
5620;SDS011;2832;50.864;12.186;2022-12-01T06:21:17;1.10;;;1.10;;
5620;SDS011;2832;50.864;12.186;2022-12-01T06:23:46;1.10;;;1.10;;
5620;SDS011;2832;50.864;12.186;2022-12-01T06:26:14;1.10;;;1.10;;
5620;SDS011;2832;50.864;12.186;2022-12-01T06:28:42;1.10;;;1.10;;
5620;SDS011;2832;50.864;12.186;2022-12-01T06:31:11;1.10;;;1.10;;
5620;SDS011;2832;50.864;12.186;2022-12-01T06:33:39;1.10;;;1.10;;
5620;SDS011;2832;50.864;12.186;2022-12-01T06:36:09;1.10;;;1.10;;
5620;SDS011;2832;50.864;12.186;2022-12-01T06:38:36;1.03;;;1.03;;
5620;SDS011;2832;50.864;12.186;2022-12-01T06:41:05;1.10;;;1.10;;
5620;SDS011;2832;50.864;12.186;2022-12-01T06:43:36;1.00;;;1.00;;
5620;SDS011;2832;50.864;12.186;2022-12-01T06:46:04;1.00;;;1.00;;
5620;SDS011;2832;50.864;12.186;2022-12-01T06:48:32;1.10;;;1.10;;
5620;SDS011;2832;50.864;12.186;2022-12-01T06:51:00;1.10;;;1.10;;
5620;SDS011;2832;50.864;12.186;2022-12-01T06:53:36;1.00;;;1.00;;
5620;SDS011;2832;50.864;12.186;2022-12-01T06:56:05;1.10;;;1.10;;
5620;SDS011;2832;50.864;12.186;2022-12-01T06:58:33;1.10;;;1.10;;
5620;SDS011;2832;50.864;12.186;2022-12-01T07:01:06;1.10;;;1.10;;
5620;SDS011;2832;50.864;12.186;2022-12-01T07:03:36;1.10;;;1.10;;
5620;SDS011;2832;50.864;12.186;2022-12-01T07:06:05;1.10;;;1.10;;
5620;SDS011;2832;50.864;12.186;2022-12-01T07:08:32;1.10;;;1.10;;
5620;SDS011;2832;50.864;12.186;2022-12-01T07:11:03;1.10;;;1.10;;
5620;SDS011;2832;50.864;12.186;2022-12-01T07:13:33;1.10;;;1.10;;
5620;SDS011;2832;50.864;12.186;2022-12-01T07:16:05;1.10;;;1.10;;
5620;SDS011;2832;50.864;12.186;2022-12-01T07:18:38;1.00;;;1.00;;
5620;SDS011;2832;50.864;12.186;2022-12-01T07:21:06;1.10;;;1.10;;
5620;SDS011;2832;50.864;12.186;2022-12-01T07:23:38;1.07;;;1.07;;
5620;SDS011;2832;50.864;12.186;2022-12-01T07:26:09;1.10;;;1.10;;
5620;SDS011;2832;50.864;12.186;2022-12-01T07:28:38;1.10;;;1.10;;
5620;SDS011;2832;50.864;12.186;2022-12-01T07:31:07;1.10;;;1.10;;
5620;SDS011;2832;50.864;12.186;2022-12-01T07:33:38;1.10;;;1.10;;
5620;SDS011;2832;50.864;12.186;2022-12-01T07:36:07;1.10;;;1.10;;
5620;SDS011;2832;50.864;12.186;2022-12-01T07:38:36;1.10;;;1.10;;
5620;SDS011;2832;50.864;12.186;2022-12-01T07:41:05;1.10;;;1.10;;
5620;SDS011;2832;50.864;12.186;2022-12-01T07:43:36;1.10;;;1.10;;
5620;SDS011;2832;50.864;12.186;2022-12-01T07:46:05;1.10;;;1.10;;
5620;SDS011;2832;50.864;12.186;2022-12-01T07:48:33;1.10;;;1.10;;
5620;SDS011;2832;50.864;12.186;2022-12-01T07:51:04;1.10;;;1.10;;
5620;SDS011;2832;50.864;12.186;2022-12-01T07:53:34;1.00;;;1.00;;
5620;SDS011;2832;50.864;12.186;2022-12-01T07:56:06;1.10;;;1.10;;
5620;SDS011;2832;50.864;12.186;2022-12-01T07:58:40;1.10;;;1.10;;
5620;SDS011;2832;50.864;12.186;2022-12-01T08:01:10;1.20;;;1.20;;
5620;SDS011;2832;50.864;12.186;2022-12-01T08:03:39;1.10;;;1.10;;
5620;SDS011;2832;50.864;12.186;2022-12-01T08:06:08;1.10;;;1.10;;
5620;SDS011;2832;50.864;12.186;2022-12-01T08:08:37;1.10;;;1.10;;
5620;SDS011;2832;50.864;12.186;2022-12-01T08:11:10;1.10;;;1.10;;
5620;SDS011;2832;50.864;12.186;2022-12-01T08:13:40;1.10;;;1.10;;
5620;SDS011;2832;50.864;12.186;2022-12-01T08:16:09;1.10;;;1.10;;
5620;SDS011;2832;50.864;12.186;2022-12-01T08:18:38;1.10;;;1.10;;
5620;SDS011;2832;50.864;12.186;2022-12-01T08:21:07;1.10;;;1.10;;
5620;SDS011;2832;50.864;12.186;2022-12-01T08:23:37;1.10;;;1.10;;
5620;SDS011;2832;50.864;12.186;2022-12-01T08:26:07;1.10;;;1.10;;
5620;SDS011;2832;50.864;12.186;2022-12-01T08:28:38;1.10;;;1.10;;
5620;SDS011;2832;50.864;12.186;2022-12-01T08:31:08;1.10;;;1.10;;
5620;SDS011;2832;50.864;12.186;2022-12-01T08:33:43;1.10;;;1.10;;
5620;SDS011;2832;50.864;12.186;2022-12-01T08:36:16;1.10;;;1.10;;
5620;SDS011;2832;50.864;12.186;2022-12-01T08:38:45;1.00;;;1.00;;
5620;SDS011;2832;50.864;12.186;2022-12-01T08:41:15;1.10;;;1.10;;
5620;SDS011;2832;50.864;12.186;2022-12-01T08:43:44;1.10;;;1.10;;
5620;SDS011;2832;50.864;12.186;2022-12-01T08:46:12;1.10;;;1.10;;
5620;SDS011;2832;50.864;12.186;2022-12-01T08:48:40;1.10;;;1.10;;
5620;SDS011;2832;50.864;12.186;2022-12-01T08:51:09;1.10;;;1.10;;
5620;SDS011;2832;50.864;12.186;2022-12-01T08:53:41;1.20;;;1.20;;
5620;SDS011;2832;50.864;12.186;2022-12-01T08:56:15;1.10;;;1.10;;
5620;SDS011;2832;50.864;12.186;2022-12-01T08:58:44;1.10;;;1.10;;
5620;SDS011;2832;50.864;12.186;2022-12-01T09:01:13;1.10;;;1.10;;
5620;SDS011;2832;50.864;12.186;2022-12-01T09:03:42;1.00;;;1.00;;
5620;SDS011;2832;50.864;12.186;2022-12-01T09:06:12;1.10;;;1.10;;
5620;SDS011;2832;50.864;12.186;2022-12-01T09:08:45;1.10;;;1.10;;
5620;SDS011;2832;50.864;12.186;2022-12-01T09:11:16;1.10;;;1.10;;
5620;SDS011;2832;50.864;12.186;2022-12-01T09:13:47;1.20;;;1.20;;
5620;SDS011;2832;50.864;12.186;2022-12-01T09:16:15;1.03;;;1.03;;
5620;SDS011;2832;50.864;12.186;2022-12-01T09:18:45;1.10;;;1.10;;
5620;SDS011;2832;50.864;12.186;2022-12-01T09:21:14;1.10;;;1.10;;
5620;SDS011;2832;50.864;12.186;2022-12-01T09:23:43;1.10;;;1.10;;
5620;SDS011;2832;50.864;12.186;2022-12-01T09:26:12;1.10;;;1.10;;
5620;SDS011;2832;50.864;12.186;2022-12-01T09:28:43;1.10;;;1.10;;
5620;SDS011;2832;50.864;12.186;2022-12-01T09:31:12;1.10;;;1.10;;
5620;SDS011;2832;50.864;12.186;2022-12-01T09:33:41;1.10;;;1.10;;
5620;SDS011;2832;50.864;12.186;2022-12-01T09:36:09;1.10;;;1.10;;
5620;SDS011;2832;50.864;12.186;2022-12-01T09:38:38;1.10;;;1.10;;
5620;SDS011;2832;50.864;12.186;2022-12-01T09:41:10;1.10;;;1.10;;
5620;SDS011;2832;50.864;12.186;2022-12-01T09:43:45;1.10;;;1.10;;
5620;SDS011;2832;50.864;12.186;2022-12-01T09:46:19;1.10;;;1.10;;
5620;SDS011;2832;50.864;12.186;2022-12-01T09:48:52;1.10;;;1.10;;
5620;SDS011;2832;50.864;12.186;2022-12-01T09:51:24;1.10;;;1.10;;
5620;SDS011;2832;50.864;12.186;2022-12-01T09:53:55;1.10;;;1.10;;
5620;SDS011;2832;50.864;12.186;2022-12-01T09:56:28;1.10;;;1.10;;
5620;SDS011;2832;50.864;12.186;2022-12-01T09:58:58;1.10;;;1.10;;
5620;SDS011;2832;50.864;12.186;2022-12-01T10:01:30;1.10;;;1.10;;
5620;SDS011;2832;50.864;12.186;2022-12-01T10:04:02;1.10;;;1.10;;
5620;SDS011;2832;50.864;12.186;2022-12-01T10:06:36;1.10;;;1.10;;
5620;SDS011;2832;50.864;12.186;2022-12-01T10:09:11;1.10;;;1.10;;
5620;SDS011;2832;50.864;12.186;2022-12-01T10:11:48;1.10;;;1.10;;
5620;SDS011;2832;50.864;12.186;2022-12-01T10:14:20;1.10;;;1.10;;
5620;SDS011;2832;50.864;12.186;2022-12-01T10:16:52;1.10;;;1.10;;
5620;SDS011;2832;50.864;12.186;2022-12-01T10:19:31;1.07;;;1.07;;
5620;SDS011;2832;50.864;12.186;2022-12-01T10:22:08;1.10;;;1.10;;
5620;SDS011;2832;50.864;12.186;2022-12-01T10:24:49;1.10;;;1.10;;
5620;SDS011;2832;50.864;12.186;2022-12-01T10:27:27;1.10;;;1.10;;
5620;SDS011;2832;50.864;12.186;2022-12-01T10:30:05;1.10;;;1.10;;
5620;SDS011;2832;50.864;12.186;2022-12-01T10:32:39;1.00;;;1.00;;
5620;SDS011;2832;50.864;12.186;2022-12-01T10:35:18;1.10;;;1.10;;
5620;SDS011;2832;50.864;12.186;2022-12-01T10:37:48;1.00;;;1.00;;
5620;SDS011;2832;50.864;12.186;2022-12-01T10:40:20;1.10;;;1.10;;
5620;SDS011;2832;50.864;12.186;2022-12-01T10:42:50;1.20;;;1.20;;
5620;SDS011;2832;50.864;12.186;2022-12-01T10:45:19;1.10;;;1.10;;
5620;SDS011;2832;50.864;12.186;2022-12-01T10:48:07;1.20;;;1.20;;
5620;SDS011;2832;50.864;12.186;2022-12-01T10:50:40;1.10;;;1.10;;
5620;SDS011;2832;50.864;12.186;2022-12-01T10:53:24;1.10;;;1.10;;
5620;SDS011;2832;50.864;12.186;2022-12-01T10:56:01;1.10;;;1.10;;
5620;SDS011;2832;50.864;12.186;2022-12-01T10:58:38;1.00;;;1.00;;
5620;SDS011;2832;50.864;12.186;2022-12-01T11:01:16;1.10;;;1.10;;
5620;SDS011;2832;50.864;12.186;2022-12-01T11:03:51;1.00;;;1.00;;
5620;SDS011;2832;50.864;12.186;2022-12-01T11:06:28;1.10;;;1.10;;
5620;SDS011;2832;50.864;12.186;2022-12-01T11:08:59;1.10;;;1.10;;
5620;SDS011;2832;50.864;12.186;2022-12-01T11:11:30;1.10;;;1.10;;
5620;SDS011;2832;50.864;12.186;2022-12-01T11:14:04;1.10;;;1.10;;
5620;SDS011;2832;50.864;12.186;2022-12-01T11:16:56;1.10;;;1.10;;
5620;SDS011;2832;50.864;12.186;2022-12-01T11:19:42;1.10;;;1.10;;
5620;SDS011;2832;50.864;12.186;2022-12-01T11:22:19;1.00;;;1.00;;
5620;SDS011;2832;50.864;12.186;2022-12-01T11:24:57;1.07;;;1.07;;
5620;SDS011;2832;50.864;12.186;2022-12-01T11:27:29;1.10;;;1.10;;
5620;SDS011;2832;50.864;12.186;2022-12-01T11:30:02;1.10;;;1.10;;
5620;SDS011;2832;50.864;12.186;2022-12-01T11:32:33;1.10;;;1.10;;
5620;SDS011;2832;50.864;12.186;2022-12-01T11:35:05;1.00;;;1.00;;
5620;SDS011;2832;50.864;12.186;2022-12-01T11:37:44;1.10;;;1.10;;
5620;SDS011;2832;50.864;12.186;2022-12-01T11:40:15;1.10;;;1.10;;
5620;SDS011;2832;50.864;12.186;2022-12-01T11:42:48;1.00;;;1.00;;
5620;SDS011;2832;50.864;12.186;2022-12-01T11:45:25;1.00;;;1.00;;
5620;SDS011;2832;50.864;12.186;2022-12-01T11:47:57;1.03;;;1.03;;
5620;SDS011;2832;50.864;12.186;2022-12-01T11:50:28;1.10;;;1.10;;
5620;SDS011;2832;50.864;12.186;2022-12-01T11:52:58;1.10;;;1.10;;
5620;SDS011;2832;50.864;12.186;2022-12-01T11:55:27;1.10;;;1.10;;
5620;SDS011;2832;50.864;12.186;2022-12-01T11:57:57;1.03;;;1.03;;
5620;SDS011;2832;50.864;12.186;2022-12-01T12:00:40;1.10;;;1.10;;
5620;SDS011;2832;50.864;12.186;2022-12-01T12:03:19;1.10;;;1.10;;
5620;SDS011;2832;50.864;12.186;2022-12-01T12:05:57;1.10;;;1.10;;
5620;SDS011;2832;50.864;12.186;2022-12-01T12:08:48;1.10;;;1.10;;
5620;SDS011;2832;50.864;12.186;2022-12-01T12:11:31;1.00;;;1.00;;
5620;SDS011;2832;50.864;12.186;2022-12-01T12:14:12;1.10;;;1.10;;
5620;SDS011;2832;50.864;12.186;2022-12-01T12:17:05;1.10;;;1.10;;
5620;SDS011;2832;50.864;12.186;2022-12-01T12:19:49;1.10;;;1.10;;
5620;SDS011;2832;50.864;12.186;2022-12-01T12:22:29;1.10;;;1.10;;
5620;SDS011;2832;50.864;12.186;2022-12-01T12:25:14;1.10;;;1.10;;
5620;SDS011;2832;50.864;12.186;2022-12-01T12:27:54;1.10;;;1.10;;
5620;SDS011;2832;50.864;12.186;2022-12-01T12:30:35;1.17;;;1.17;;
5620;SDS011;2832;50.864;12.186;2022-12-01T12:33:17;1.10;;;1.10;;
5620;SDS011;2832;50.864;12.186;2022-12-01T12:36:07;1.00;;;1.00;;
5620;SDS011;2832;50.864;12.186;2022-12-01T12:38:47;1.10;;;1.10;;
5620;SDS011;2832;50.864;12.186;2022-12-01T12:41:26;1.10;;;1.10;;
5620;SDS011;2832;50.864;12.186;2022-12-01T12:44:06;1.00;;;1.00;;
5620;SDS011;2832;50.864;12.186;2022-12-01T12:46:47;1.10;;;1.10;;
5620;SDS011;2832;50.864;12.186;2022-12-01T12:49:28;1.10;;;1.10;;
5620;SDS011;2832;50.864;12.186;2022-12-01T12:52:03;1.10;;;1.10;;
5620;SDS011;2832;50.864;12.186;2022-12-01T12:54:40;1.10;;;1.10;;
5620;SDS011;2832;50.864;12.186;2022-12-01T12:57:17;1.00;;;1.00;;
5620;SDS011;2832;50.864;12.186;2022-12-01T12:59:50;1.10;;;1.10;;
5620;SDS011;2832;50.864;12.186;2022-12-01T13:02:23;1.10;;;1.10;;
5620;SDS011;2832;50.864;12.186;2022-12-01T13:04:59;1.10;;;1.10;;
5620;SDS011;2832;50.864;12.186;2022-12-01T13:07:35;1.10;;;1.10;;
5620;SDS011;2832;50.864;12.186;2022-12-01T13:10:09;1.10;;;1.10;;
5620;SDS011;2832;50.864;12.186;2022-12-01T13:12:50;1.10;;;1.10;;
5620;SDS011;2832;50.864;12.186;2022-12-01T13:15:28;1.10;;;1.10;;
5620;SDS011;2832;50.864;12.186;2022-12-01T13:18:09;1.10;;;1.10;;
5620;SDS011;2832;50.864;12.186;2022-12-01T13:20:44;1.10;;;1.10;;
5620;SDS011;2832;50.864;12.186;2022-12-01T13:23:14;1.00;;;1.00;;
5620;SDS011;2832;50.864;12.186;2022-12-01T13:25:47;1.10;;;1.10;;
5620;SDS011;2832;50.864;12.186;2022-12-01T13:28:17;1.10;;;1.10;;
5620;SDS011;2832;50.864;12.186;2022-12-01T13:30:57;1.10;;;1.10;;
5620;SDS011;2832;50.864;12.186;2022-12-01T13:33:26;1.10;;;1.10;;
5620;SDS011;2832;50.864;12.186;2022-12-01T13:35:57;1.10;;;1.10;;
5620;SDS011;2832;50.864;12.186;2022-12-01T13:38:25;1.10;;;1.10;;
5620;SDS011;2832;50.864;12.186;2022-12-01T13:41:08;1.10;;;1.10;;
5620;SDS011;2832;50.864;12.186;2022-12-01T13:43:47;1.00;;;1.00;;
5620;SDS011;2832;50.864;12.186;2022-12-01T13:46:23;1.10;;;1.10;;
5620;SDS011;2832;50.864;12.186;2022-12-01T13:48:52;1.00;;;1.00;;
5620;SDS011;2832;50.864;12.186;2022-12-01T13:51:25;1.00;;;1.00;;
5620;SDS011;2832;50.864;12.186;2022-12-01T13:57:04;1.10;;;1.10;;
5620;SDS011;2832;50.864;12.186;2022-12-01T13:59:39;1.10;;;1.10;;
5620;SDS011;2832;50.864;12.186;2022-12-01T14:02:27;1.00;;;1.00;;
5620;SDS011;2832;50.864;12.186;2022-12-01T14:08:03;1.10;;;1.10;;
5620;SDS011;2832;50.864;12.186;2022-12-01T14:10:43;1.10;;;1.10;;
5620;SDS011;2832;50.864;12.186;2022-12-01T14:13:20;1.00;;;1.00;;
5620;SDS011;2832;50.864;12.186;2022-12-01T14:15:52;1.00;;;1.00;;
5620;SDS011;2832;50.864;12.186;2022-12-01T14:18:27;1.10;;;1.10;;
5620;SDS011;2832;50.864;12.186;2022-12-01T14:20:58;1.00;;;1.00;;
5620;SDS011;2832;50.864;12.186;2022-12-01T14:23:33;1.10;;;1.10;;
5620;SDS011;2832;50.864;12.186;2022-12-01T14:26:12;1.10;;;1.10;;
5620;SDS011;2832;50.864;12.186;2022-12-01T14:29:08;1.10;;;1.10;;
5620;SDS011;2832;50.864;12.186;2022-12-01T14:34:51;1.10;;;1.10;;
5620;SDS011;2832;50.864;12.186;2022-12-01T14:37:36;1.00;;;1.00;;
5620;SDS011;2832;50.864;12.186;2022-12-01T14:40:18;1.07;;;1.07;;
5620;SDS011;2832;50.864;12.186;2022-12-01T14:42:50;1.10;;;1.10;;
5620;SDS011;2832;50.864;12.186;2022-12-01T14:45:41;1.10;;;1.10;;
5620;SDS011;2832;50.864;12.186;2022-12-01T14:48:22;1.10;;;1.10;;
5620;SDS011;2832;50.864;12.186;2022-12-01T14:51:06;1.10;;;1.10;;
5620;SDS011;2832;50.864;12.186;2022-12-01T14:53:39;1.10;;;1.10;;
5620;SDS011;2832;50.864;12.186;2022-12-01T14:56:18;1.10;;;1.10;;
5620;SDS011;2832;50.864;12.186;2022-12-01T14:58:51;1.00;;;1.00;;
5620;SDS011;2832;50.864;12.186;2022-12-01T15:01:25;1.10;;;1.10;;
5620;SDS011;2832;50.864;12.186;2022-12-01T15:04:01;1.10;;;1.10;;
5620;SDS011;2832;50.864;12.186;2022-12-01T15:06:31;1.07;;;1.07;;
5620;SDS011;2832;50.864;12.186;2022-12-01T15:09:07;1.00;;;1.00;;
5620;SDS011;2832;50.864;12.186;2022-12-01T15:11:47;1.10;;;1.10;;
5620;SDS011;2832;50.864;12.186;2022-12-01T15:14:31;1.10;;;1.10;;
5620;SDS011;2832;50.864;12.186;2022-12-01T15:17:01;1.10;;;1.10;;
5620;SDS011;2832;50.864;12.186;2022-12-01T15:19:31;1.00;;;1.00;;
5620;SDS011;2832;50.864;12.186;2022-12-01T15:22:03;1.00;;;1.00;;
5620;SDS011;2832;50.864;12.186;2022-12-01T15:24:38;1.10;;;1.10;;
5620;SDS011;2832;50.864;12.186;2022-12-01T15:27:22;1.10;;;1.10;;
5620;SDS011;2832;50.864;12.186;2022-12-01T15:29:52;1.00;;;1.00;;
5620;SDS011;2832;50.864;12.186;2022-12-01T15:32:21;1.10;;;1.10;;
5620;SDS011;2832;50.864;12.186;2022-12-01T15:34:52;1.00;;;1.00;;
5620;SDS011;2832;50.864;12.186;2022-12-01T15:37:21;1.07;;;1.07;;
5620;SDS011;2832;50.864;12.186;2022-12-01T15:39:52;1.10;;;1.10;;
5620;SDS011;2832;50.864;12.186;2022-12-01T15:42:29;1.00;;;1.00;;
5620;SDS011;2832;50.864;12.186;2022-12-01T15:44:58;1.10;;;1.10;;
5620;SDS011;2832;50.864;12.186;2022-12-01T15:47:32;1.10;;;1.10;;
5620;SDS011;2832;50.864;12.186;2022-12-01T15:50:03;1.10;;;1.10;;